Time;durP1;ratioP1;P1;durP2;ratioP2;P2;SDS_P1;SDS_P2;PMS_P1;PMS_P2;Temp;Humidity;BMP_temperature;BMP_pressure;BME280_temperature;BME280_humidity;BME280_pressure;Samples;Min_cycle;Max_cycle;Signal;HPM_P1;HPM_P2
2021/05/01 00:00:34;;;;;;;3.90;2.98;;;;;;;12.27;70.86;100383.22;1706290;83;21387;-42
2021/05/01 00:03:02;;;;;;;3.92;2.87;;;;;;;12.25;70.75;100383.70;1706265;82;20920;-42
2021/05/01 00:05:30;;;;;;;8.43;2.83;;;;;;;12.26;70.64;100381.52;1707516;83;21014;-42
2021/05/01 00:07:58;;;;;;;5.28;2.95;;;;;;;12.24;70.65;100385.03;1706362;82;21137;-43
2021/05/01 00:10:26;;;;;;;5.67;3.25;;;;;;;12.21;70.68;100388.55;1706302;84;20992;-41
2021/05/01 00:12:53;;;;;;;6.70;3.27;;;;;;;12.20;70.81;100382.52;1706259;83;22397;-42
2021/05/01 00:15:21;;;;;;;4.28;3.25;;;;;;;12.19;70.93;100382.55;1706251;84;20955;-41
2021/05/01 00:17:48;;;;;;;8.03;3.12;;;;;;;12.19;70.76;100381.25;1706247;84;21043;-41
2021/05/01 00:20:18;;;;;;;4.08;3.47;;;;;;;12.20;70.72;100380.36;1706239;83;20948;-41
2021/05/01 00:22:46;;;;;;;7.15;3.95;;;;;;;12.19;70.86;100380.81;1706278;84;21205;-42
2021/05/01 00:25:14;;;;;;;10.58;3.83;;;;;;;12.17;70.78;100389.09;1706245;84;21199;-42
2021/05/01 00:27:42;;;;;;;6.85;3.77;;;;;;;12.16;70.79;100393.01;1706260;82;20999;-41
2021/05/01 00:30:11;;;;;;;9.58;3.70;;;;;;;12.14;70.83;100390.91;1706248;84;20959;-43
2021/05/01 00:32:39;;;;;;;6.83;3.45;;;;;;;12.14;70.88;100394.80;1706322;83;21599;-40
2021/05/01 00:35:08;;;;;;;5.30;3.72;;;;;;;12.13;71.01;100407.36;1706266;84;21027;-41
2021/05/01 00:37:36;;;;;;;17.32;3.67;;;;;;;12.09;71.23;100395.36;1706319;84;22316;-41
2021/05/01 00:40:06;;;;;;;8.60;3.95;;;;;;;12.04;71.36;100385.97;1706189;83;21086;-41
2021/05/01 00:42:35;;;;;;;7.45;2.83;;;;;;;12.02;71.61;100389.48;1706269;84;20968;-41
2021/05/01 00:45:05;;;;;;;5.97;3.15;;;;;;;12.01;71.57;100385.17;1706242;83;20960;-41
2021/05/01 00:47:34;;;;;;;8.78;3.50;;;;;;;12.00;71.64;100387.34;1706303;83;20959;-42
2021/05/01 00:50:03;;;;;;;11.40;3.45;;;;;;;11.97;71.73;100388.25;1706292;84;22168;-42
2021/05/01 00:52:32;;;;;;;5.25;2.75;;;;;;;11.92;71.92;100384.92;1706186;83;21082;-42
2021/05/01 00:54:59;;;;;;;8.23;3.30;;;;;;;11.86;72.13;100386.39;1706268;84;20948;-41
2021/05/01 00:57:27;;;;;;;11.45;3.50;;;;;;;11.82;72.28;100383.47;1706250;84;20940;-40
2021/05/01 00:59:54;;;;;;;4.28;3.25;;;;;;;11.74;72.48;100387.08;1706296;84;21043;-40
2021/05/01 01:02:27;;;;;;;9.55;3.87;;;;;;;11.71;72.63;100394.94;1706273;84;21379;-40
2021/05/01 01:04:55;;;;;;;8.50;3.42;;;;;;;11.68;72.84;100396.77;1706068;82;21058;-41
2021/05/01 01:07:23;;;;;;;14.18;3.70;;;;;;;11.62;73.08;100399.05;1706198;84;20987;-41
2021/05/01 01:09:52;;;;;;;50.15;4.78;;;;;;;11.58;73.24;100406.50;1711441;83;21011;-40
2021/05/01 01:12:20;;;;;;;70.85;5.67;;;;;;;11.56;73.49;100413.47;1714165;83;21014;-41
2021/05/01 01:14:48;;;;;;;114.37;8.83;;;;;;;11.52;73.61;100407.95;1714167;83;21206;-41
2021/05/01 01:17:16;;;;;;;289.12;23.55;;;;;;;11.48;73.99;100411.88;1714089;83;21058;-42
2021/05/01 01:19:45;;;;;;;178.80;16.52;;;;;;;11.44;74.15;100408.95;1714039;83;20999;-40
2021/05/01 01:22:15;;;;;;;10.82;4.22;;;;;;;11.39;74.32;100412.56;1714100;83;20955;-41
2021/05/01 01:24:43;;;;;;;15.43;3.67;;;;;;;11.34;74.54;100407.01;1714171;83;21599;-41
2021/05/01 01:27:10;;;;;;;8.23;3.58;;;;;;;11.29;74.60;100405.43;1714213;83;21160;-42
2021/05/01 01:29:41;;;;;;;5.45;3.70;;;;;;;11.21;74.87;100408.19;1714070;82;21010;-41
2021/05/01 01:32:11;;;;;;;7.47;3.58;;;;;;;11.13;75.26;100401.87;1714135;83;21176;-42
2021/05/01 01:34:43;;;;;;;10.88;3.58;;;;;;;11.07;75.57;100407.19;1714077;82;21081;-41
2021/05/01 01:37:11;;;;;;;4.65;3.45;;;;;;;11.03;75.67;100410.27;1714067;83;21074;-41
2021/05/01 01:39:42;;;;;;;7.92;3.75;;;;;;;11.01;76.12;100415.93;1714119;83;21600;-41
2021/05/01 01:42:11;;;;;;;9.88;4.10;;;;;;;10.98;76.44;100409.52;1714063;83;20967;-42
2021/05/01 01:44:39;;;;;;;9.10;4.05;;;;;;;10.95;76.50;100413.47;1714121;83;20990;-41
2021/05/01 01:47:07;;;;;;;5.85;3.52;;;;;;;10.91;76.60;100416.56;1714034;83;20959;-41
2021/05/01 01:49:39;;;;;;;10.10;3.55;;;;;;;10.89;76.82;100423.97;1714151;83;20948;-41
2021/05/01 01:52:07;;;;;;;10.25;4.08;;;;;;;10.84;77.01;100417.58;1714106;83;21420;-42
2021/05/01 01:54:35;;;;;;;4.30;3.55;;;;;;;10.79;77.08;100420.70;1713993;83;21018;-41
2021/05/01 01:57:04;;;;;;;10.13;4.20;;;;;;;10.75;77.33;100421.66;1714214;83;21078;-42
2021/05/01 01:59:33;;;;;;;8.45;4.30;;;;;;;10.70;77.71;100424.75;1714071;83;20975;-42
2021/05/01 02:02:01;;;;;;;4.22;3.65;;;;;;;10.63;77.97;100431.34;1714053;83;20935;-42
2021/05/01 02:04:29;;;;;;;9.13;4.50;;;;;;;10.59;78.14;100424.53;1714020;82;21370;-42
2021/05/01 02:06:57;;;;;;;7.25;4.97;;;;;;;10.54;78.34;100438.43;1714063;83;21000;-42
2021/05/01 02:09:24;;;;;;;6.55;4.55;;;;;;;10.47;78.58;100430.78;1715913;83;21011;-41
2021/05/01 02:11:53;;;;;;;9.23;4.05;;;;;;;10.41;78.88;100427.02;1719680;82;20978;-42
2021/05/01 02:14:22;;;;;;;11.63;4.55;;;;;;;10.40;79.15;100436.06;1719783;83;21282;-42
2021/05/01 02:16:50;;;;;;;8.10;4.53;;;;;;;10.39;79.48;100446.00;1719740;83;22604;-42
2021/05/01 02:19:18;;;;;;;8.98;4.30;;;;;;;10.36;79.77;100436.58;1719664;83;20943;-41
2021/05/01 02:21:45;;;;;;;14.40;4.60;;;;;;;10.31;80.05;100443.12;1719734;83;21046;-42
2021/05/01 02:24:14;;;;;;;10.20;4.78;;;;;;;10.30;80.25;100450.47;1719728;83;21504;-42
2021/05/01 02:26:42;;;;;;;9.68;4.20;;;;;;;10.31;80.46;100453.47;1719737;83;21010;-41
2021/05/01 02:29:10;;;;;;;14.95;5.25;;;;;;;10.31;80.77;100451.30;1719758;83;22258;-41
2021/05/01 02:31:37;;;;;;;58.48;8.03;;;;;;;10.30;80.88;100458.66;1719648;83;20952;-41
2021/05/01 02:34:06;;;;;;;26.82;6.90;;;;;;;10.28;81.23;100459.99;1719702;83;20911;-41
2021/05/01 02:36:33;;;;;;;18.45;5.67;;;;;;;10.27;81.39;100465.18;1719623;83;20919;-42
2021/05/01 02:39:04;;;;;;;11.43;5.53;;;;;;;10.26;81.50;100456.58;1719796;83;20952;-42
2021/05/01 02:41:33;;;;;;;9.58;4.67;;;;;;;10.25;81.54;100463.06;1719711;83;21364;-42
2021/05/01 02:44:01;;;;;;;20.20;5.30;;;;;;;10.24;81.69;100463.94;1719669;83;20947;-42
2021/05/01 02:46:30;;;;;;;13.70;5.25;;;;;;;10.23;81.88;100473.88;1719614;83;21018;-42
2021/05/01 02:48:58;;;;;;;12.35;5.78;;;;;;;10.20;82.04;100469.59;1719701;83;20931;-40
2021/05/01 02:51:25;;;;;;;8.58;5.35;;;;;;;10.18;82.19;100484.29;1719728;83;21023;-42
2021/05/01 02:53:53;;;;;;;26.37;6.90;;;;;;;10.14;82.40;100483.93;1719684;83;21338;-42
2021/05/01 02:56:21;;;;;;;19.02;6.08;;;;;;;10.14;82.62;100478.76;1719614;83;21030;-42
2021/05/01 02:58:48;;;;;;;30.40;6.95;;;;;;;10.18;83.02;100489.04;1719688;83;21042;-42
2021/05/01 03:01:16;;;;;;;32.45;6.85;;;;;;;10.23;82.98;100494.58;1719659;83;21097;-40
2021/05/01 03:03:46;;;;;;;22.55;5.80;;;;;;;10.27;83.18;100491.92;1719658;82;21046;-40
2021/05/01 03:06:16;;;;;;;32.17;7.30;;;;;;;10.32;83.35;100498.29;1719688;83;21421;-41
2021/05/01 03:08:43;;;;;;;65.05;8.78;;;;;;;10.38;83.42;100503.81;1719583;83;21034;-41
2021/05/01 03:11:11;;;;;;;29.40;7.05;;;;;;;10.43;83.39;100500.30;1719664;83;20975;-41
2021/05/01 03:13:38;;;;;;;16.55;5.83;;;;;;;10.52;83.51;100497.13;1719632;83;21135;-40
2021/05/01 03:16:06;;;;;;;27.25;5.80;;;;;;;10.60;83.48;100505.19;1719679;82;21066;-41
2021/05/01 03:18:33;;;;;;;18.32;5.53;;;;;;;10.67;83.45;100502.48;1719688;83;21268;-42
2021/05/01 03:22:27;;;;;;;18.23;6.22;;;;;;;10.84;83.50;100503.45;1777002;79;22655;-42
2021/05/01 03:24:54;;;;;;;56.53;8.63;;;;;;;10.88;83.44;100516.33;1749437;82;20967;-42
2021/05/01 03:27:22;;;;;;;66.22;10.00;;;;;;;10.99;83.37;100515.26;1749502;82;21324;-42
2021/05/01 03:29:51;;;;;;;42.75;6.87;;;;;;;11.11;83.27;100513.73;1749394;82;21062;-42
2021/05/01 03:32:19;;;;;;;53.30;7.58;;;;;;;11.23;83.15;100516.95;1749492;81;20955;-41
2021/05/01 03:34:47;;;;;;;70.10;8.78;;;;;;;11.33;83.20;100519.79;1749388;80;21058;-41
2021/05/01 03:37:14;;;;;;;76.60;8.83;;;;;;;11.48;83.12;100516.86;1749528;82;20971;-41
2021/05/01 03:39:42;;;;;;;168.05;13.93;;;;;;;11.61;82.83;100519.20;1749470;82;21192;-42
2021/05/01 03:42:10;;;;;;;30.92;6.50;;;;;;;11.78;82.71;100524.02;1749375;82;20955;-42
2021/05/01 03:44:37;;;;;;;7.42;4.65;;;;;;;12.00;82.45;100524.40;1749487;81;20999;-42
2021/05/01 03:47:05;;;;;;;44.83;7.75;;;;;;;12.22;82.02;100521.30;1749425;82;20940;-41
2021/05/01 03:49:34;;;;;;;72.95;9.55;;;;;;;12.45;81.40;100517.28;1749429;82;20944;-42
2021/05/01 03:52:02;;;;;;;28.42;5.60;;;;;;;12.70;80.59;100528.34;1749332;82;21198;-42
2021/05/01 03:54:30;;;;;;;11.80;5.03;;;;;;;12.90;79.54;100522.17;1749406;82;20963;-42
2021/05/01 03:56:57;;;;;;;20.17;5.53;;;;;;;13.04;78.69;100526.16;1749373;82;20936;-42
2021/05/01 03:59:26;;;;;;;6.97;4.28;;;;;;;13.21;78.28;100535.61;1749479;82;20959;-42
2021/05/01 04:01:53;;;;;;;31.82;6.53;;;;;;;13.37;77.76;100536.02;1749394;82;21066;-42
2021/05/01 04:04:22;;;;;;;36.83;7.03;;;;;;;13.53;76.95;100533.48;1729941;82;21284;-41
2021/05/01 04:06:50;;;;;;;23.38;5.03;;;;;;;13.60;76.15;100535.83;1719577;83;21173;-42
2021/05/01 04:09:18;;;;;;;21.15;5.05;;;;;;;13.71;75.90;100535.98;1719623;83;21027;-41
2021/05/01 04:11:45;;;;;;;32.35;5.87;;;;;;;13.85;75.87;100542.89;1719569;83;21007;-41
2021/05/01 04:14:13;;;;;;;7.60;4.33;;;;;;;13.96;75.12;100546.94;1719619;83;21499;-41
2021/05/01 04:16:41;;;;;;;7.40;4.78;;;;;;;14.01;74.52;100543.27;1719570;83;21203;-41
2021/05/01 04:19:09;;;;;;;10.00;5.55;;;;;;;13.97;74.02;100544.27;1719620;83;21094;-41
2021/05/01 04:21:36;;;;;;;8.63;4.75;;;;;;;13.94;74.57;100542.63;1712537;83;20908;-42
2021/05/01 04:24:06;;;;;;;6.08;4.28;;;;;;;13.98;74.71;100548.57;1706736;84;21256;-41
2021/05/01 04:26:34;;;;;;;6.97;4.67;;;;;;;14.00;74.53;100552.44;1706847;83;20936;-41
2021/05/01 04:29:02;;;;;;;11.60;4.75;;;;;;;14.04;74.36;100544.50;1706855;84;21363;-41
2021/05/01 04:31:30;;;;;;;6.12;4.75;;;;;;;14.07;74.67;100545.70;1706662;82;20971;-41
2021/05/01 04:33:58;;;;;;;13.50;4.90;;;;;;;14.15;74.78;100543.30;1706369;84;20968;-41
2021/05/01 04:36:25;;;;;;;6.10;4.45;;;;;;;14.21;74.53;100543.09;1706270;83;20959;-41
2021/05/01 04:38:53;;;;;;;7.53;4.87;;;;;;;14.33;74.47;100544.01;1706441;84;21003;-41
2021/05/01 04:41:21;;;;;;;6.85;4.80;;;;;;;14.42;74.23;100545.90;1706245;83;21416;-41
2021/05/01 04:43:49;;;;;;;9.00;5.08;;;;;;;14.54;73.78;100546.81;1706275;83;21043;-41
2021/05/01 04:46:19;;;;;;;6.08;4.67;;;;;;;14.60;73.33;100549.20;1706229;84;21563;-41
2021/05/01 04:48:47;;;;;;;8.25;4.65;;;;;;;14.65;73.10;100551.19;1706269;84;21031;-41
2021/05/01 04:51:17;;;;;;;8.68;5.35;;;;;;;14.71;73.19;100551.91;1706338;84;21011;-41
2021/05/01 04:53:45;;;;;;;11.80;5.37;;;;;;;14.83;73.18;100553.24;1664161;84;21451;-42
2021/05/01 04:56:12;;;;;;;8.48;4.62;;;;;;;14.98;72.90;100565.75;1706308;83;21536;-42
2021/05/01 04:58:40;;;;;;;7.87;5.10;;;;;;;15.08;72.67;100559.77;1706276;84;21241;-42
2021/05/01 05:01:08;;;;;;;12.75;5.50;;;;;;;15.26;71.98;100563.90;1706207;84;21055;-42
2021/05/01 05:03:36;;;;;;;12.45;5.75;;;;;;;15.26;71.60;100562.16;1706229;82;20977;-42
2021/05/01 05:06:04;;;;;;;10.43;5.35;;;;;;;15.32;72.01;100562.39;1706291;84;21350;-42
2021/05/01 05:08:32;;;;;;;7.40;4.92;;;;;;;15.39;71.75;100572.99;1706322;83;21576;-42
2021/05/01 05:11:00;;;;;;;7.03;5.03;;;;;;;15.48;71.61;100574.41;1706229;84;20924;-42
2021/05/01 05:13:28;;;;;;;7.67;5.12;;;;;;;15.64;71.48;100582.05;1706250;84;21035;-42
2021/05/01 05:15:56;;;;;;;15.28;5.33;;;;;;;15.77;71.08;100586.34;1706314;84;21023;-42
2021/05/01 05:18:24;;;;;;;8.08;5.33;;;;;;;15.96;70.57;100584.84;1706284;84;21359;-42
2021/05/01 05:20:52;;;;;;;13.05;5.67;;;;;;;16.03;69.68;100585.82;1706122;83;21632;-42
2021/05/01 05:23:20;;;;;;;6.28;5.42;;;;;;;16.07;69.75;100578.29;1706293;84;21014;-41
2021/05/01 05:25:48;;;;;;;10.82;5.90;;;;;;;16.02;70.34;100588.03;1706225;84;21079;-40
2021/05/01 05:28:17;;;;;;;11.73;6.35;;;;;;;16.08;70.19;100582.59;1705803;84;21079;-41
2021/05/01 05:30:45;;;;;;;10.65;6.35;;;;;;;16.08;69.83;100585.21;1706260;84;21149;-41
2021/05/01 05:33:13;;;;;;;8.10;6.30;;;;;;;16.05;69.98;100587.94;1706252;83;20932;-41
2021/05/01 05:35:41;;;;;;;11.15;6.00;;;;;;;16.22;69.58;100594.24;1706247;84;21015;-41
2021/05/01 05:38:08;;;;;;;7.65;5.97;;;;;;;16.23;69.35;100590.72;1706149;84;20952;-41
2021/05/01 05:40:39;;;;;;;9.80;6.10;;;;;;;16.30;69.47;100597.42;1706208;84;21007;-42
2021/05/01 05:43:05;;;;;;;7.67;5.67;;;;;;;16.40;69.02;100593.12;1706154;84;21212;-41
2021/05/01 05:45:33;;;;;;;9.85;5.28;;;;;;;16.44;68.79;100594.69;1706159;83;21042;-40
2021/05/01 05:48:02;;;;;;;7.08;5.30;;;;;;;16.50;68.64;100593.13;1706234;84;21018;-41
2021/05/01 05:50:30;;;;;;;6.53;5.62;;;;;;;16.57;68.48;100594.59;1706252;84;21027;-41
2021/05/01 05:52:58;;;;;;;7.03;5.05;;;;;;;16.72;67.85;100600.07;1706267;84;20968;-41
2021/05/01 05:55:28;;;;;;;8.63;4.55;;;;;;;16.74;68.14;100599.11;1706206;84;20967;-42
2021/05/01 05:57:56;;;;;;;8.98;4.75;;;;;;;16.75;67.30;100589.05;1706153;84;20964;-41
2021/05/01 06:00:25;;;;;;;5.85;4.75;;;;;;;16.74;68.01;100589.09;1706270;84;20995;-41
2021/05/01 06:02:56;;;;;;;6.30;5.15;;;;;;;16.77;67.96;100595.50;1706221;82;20957;-42
2021/05/01 06:05:29;;;;;;;5.80;5.03;;;;;;;16.80;67.51;100599.31;1706218;83;21004;-42
2021/05/01 06:08:01;;;;;;;6.75;5.95;;;;;;;16.74;67.57;100600.86;1706182;83;21344;-42
2021/05/01 06:10:29;;;;;;;6.87;5.22;;;;;;;16.82;67.88;100604.02;1706146;83;21070;-42
2021/05/01 06:12:56;;;;;;;13.32;6.08;;;;;;;16.82;67.22;100607.94;1706328;84;21517;-43
2021/05/01 06:15:24;;;;;;;8.05;6.58;;;;;;;16.72;67.81;100605.30;1706183;83;21031;-42
2021/05/01 06:17:52;;;;;;;8.63;6.47;;;;;;;16.71;67.31;100603.16;1706259;83;21516;-42
2021/05/01 06:20:20;;;;;;;13.93;6.28;;;;;;;16.58;67.63;100605.44;1706275;84;21332;-42
2021/05/01 06:22:50;;;;;;;13.22;5.75;;;;;;;16.48;67.94;100611.92;1716244;83;21050;-42
2021/05/01 06:25:18;;;;;;;13.45;6.00;;;;;;;16.47;68.44;100612.84;1719728;83;20932;-42
2021/05/01 06:27:46;;;;;;;10.53;4.55;;;;;;;16.66;68.88;100619.02;1719712;82;20979;-42
2021/05/01 06:30:15;;;;;;;6.03;4.20;;;;;;;16.94;67.57;100624.87;1719805;83;20999;-42
2021/05/01 06:32:48;;;;;;;15.60;4.50;;;;;;;16.92;66.63;100619.69;1719683;82;22383;-42
2021/05/01 06:35:15;;;;;;;5.05;4.10;;;;;;;16.93;66.99;100620.08;1719648;83;21717;-42
2021/05/01 06:37:44;;;;;;;6.95;4.90;;;;;;;17.19;66.88;100621.23;1693647;83;20951;-42
2021/05/01 06:40:15;;;;;;;6.20;3.55;;;;;;;17.43;66.21;100620.59;1693426;83;21089;-44
2021/05/01 06:42:49;;;;;;;4.12;3.70;;;;;;;17.60;65.16;100621.14;1719748;83;21019;-42
2021/05/01 06:45:19;;;;;;;6.17;3.60;;;;;;;17.64;63.86;100619.24;1719778;83;21202;-41
2021/05/01 06:48:04;;;;;;;3.77;3.47;;;;;;;17.59;64.49;100618.61;1719728;83;21185;-42
2021/05/01 06:50:33;;;;;;;7.17;4.03;;;;;;;17.78;64.89;100619.44;1719625;83;21628;-42
2021/05/01 06:53:01;;;;;;;6.95;3.05;;;;;;;18.08;63.89;100620.30;1719656;83;21050;-42
2021/05/01 06:55:32;;;;;;;6.00;3.40;;;;;;;18.38;63.05;100613.63;1719708;83;20991;-42
2021/05/01 06:58:01;;;;;;;4.03;3.60;;;;;;;18.59;61.91;100620.92;1719756;82;21370;-42
2021/05/01 07:00:30;;;;;;;3.87;3.62;;;;;;;18.67;60.65;100624.00;1719711;83;21866;-42
2021/05/01 07:03:06;;;;;;;4.95;3.50;;;;;;;18.72;61.31;100626.41;1719598;82;20971;-42
2021/05/01 07:05:35;;;;;;;3.72;3.10;;;;;;;18.96;61.13;100625.61;1719662;83;21054;-42
2021/05/01 07:08:03;;;;;;;5.00;2.98;;;;;;;19.07;59.54;100620.30;1719756;83;20900;-42
2021/05/01 07:10:31;;;;;;;5.05;2.85;;;;;;;19.07;59.93;100633.41;1719727;83;21419;-42
2021/05/01 07:13:00;;;;;;;10.93;2.87;;;;;;;19.13;59.15;100643.61;1719584;82;21583;-41
2021/05/01 07:15:29;;;;;;;5.42;2.10;;;;;;;19.29;58.89;100647.60;1719674;83;21061;-42
2021/05/01 07:17:57;;;;;;;2.45;2.35;;;;;;;19.34;57.94;100647.37;1719719;83;20919;-42
2021/05/01 07:20:25;;;;;;;2.00;1.90;;;;;;;19.29;57.78;100651.98;1719802;83;20991;-42
2021/05/01 07:22:53;;;;;;;3.67;2.55;;;;;;;19.30;57.40;100654.99;1719671;83;21372;-41
2021/05/01 07:25:23;;;;;;;3.30;2.60;;;;;;;19.35;56.46;100660.87;1719169;83;21022;-42
2021/05/01 07:28:05;;;;;;;4.00;2.50;;;;;;;19.38;56.71;100660.71;1719656;83;21014;-41
2021/05/01 07:30:41;;;;;;;3.75;2.47;;;;;;;19.38;56.85;100662.02;1719609;83;21002;-42
2021/05/01 07:33:31;;;;;;;2.15;2.05;;;;;;;19.75;55.72;100656.59;1719784;83;20959;-41
2021/05/01 07:36:03;;;;;;;3.75;1.80;;;;;;;20.17;55.04;100659.12;1719802;83;21353;-42
2021/05/01 07:38:31;;;;;;;2.37;1.87;;;;;;;20.34;51.74;100663.47;1718856;83;21022;-42
2021/05/01 07:41:00;;;;;;;4.22;1.70;;;;;;;20.40;51.54;100663.56;1719628;83;20940;-43
2021/05/01 07:43:29;;;;;;;3.37;1.65;;;;;;;20.51;52.52;100655.06;1719574;83;20995;-43
2021/05/01 07:46:05;;;;;;;2.27;2.17;;;;;;;20.66;51.52;100655.52;1719765;83;21513;-42
2021/05/01 07:48:28;;;;;;;4.75;1.90;;;;;;;20.79;51.58;100654.78;1718912;83;21458;-42
2021/05/01 07:50:56;;;;;;;4.90;1.70;;;;;;;20.58;51.21;100662.97;1719579;83;21065;-42
2021/05/01 07:53:23;;;;;;;2.12;1.72;;;;;;;20.26;51.39;100664.83;1719733;83;20995;-42
2021/05/01 07:55:51;;;;;;;1.70;1.60;;;;;;;20.35;51.18;100662.53;1719632;83;21578;-43
2021/05/01 07:58:19;;;;;;;2.65;2.15;;;;;;;20.72;51.69;100666.61;1719767;83;21002;-43
2021/05/01 08:00:47;;;;;;;1.77;1.67;;;;;;;21.04;49.92;100665.20;1719664;83;21206;-42
2021/05/01 08:03:15;;;;;;;4.47;1.90;;;;;;;21.50;49.46;100661.13;1719562;82;21137;-42
2021/05/01 08:05:42;;;;;;;1.40;1.30;;;;;;;22.04;48.84;100666.17;1719623;83;20998;-43
2021/05/01 08:08:12;;;;;;;3.83;1.30;;;;;;;22.17;45.16;100670.67;1719689;83;21026;-43
2021/05/01 08:10:39;;;;;;;2.33;1.90;;;;;;;21.73;45.36;100664.16;1719853;83;21144;-42
2021/05/01 08:13:07;;;;;;;2.77;1.72;;;;;;;21.28;46.70;100676.08;1719869;82;21420;-42
2021/05/01 08:15:34;;;;;;;2.55;1.17;;;;;;;21.42;46.60;100666.48;1719703;83;20971;-43
2021/05/01 08:18:02;;;;;;;1.32;1.22;;;;;;;21.72;46.17;100663.78;1719841;83;21070;-42
2021/05/01 08:20:30;;;;;;;2.05;1.40;;;;;;;21.90;46.46;100668.84;1719792;83;21038;-42
2021/05/01 08:22:57;;;;;;;1.55;1.45;;;;;;;21.75;44.44;100671.98;1719754;83;20959;-42
2021/05/01 08:25:25;;;;;;;1.35;1.25;;;;;;;21.20;43.78;100676.52;1719798;83;21472;-41
2021/05/01 08:27:54;;;;;;;1.77;1.67;;;;;;;20.73;45.33;100677.50;1719754;83;20979;-43
2021/05/01 08:30:21;;;;;;;8.83;2.30;;;;;;;20.72;46.90;100675.36;1719815;83;21232;-41
2021/05/01 08:32:49;;;;;;;15.18;3.12;;;;;;;20.95;46.25;100668.77;1719767;83;21003;-42
2021/05/01 08:35:17;;;;;;;6.05;3.27;;;;;;;21.27;48.61;100677.47;1719826;83;21022;-41
2021/05/01 08:37:45;;;;;;;23.12;4.08;;;;;;;21.62;49.02;100674.00;1719763;83;23588;-41
2021/05/01 08:40:14;;;;;;;3.15;1.45;;;;;;;21.96;48.89;100678.51;1719729;83;21034;-41
2021/05/01 08:42:43;;;;;;;1.67;1.57;;;;;;;21.97;44.87;100675.41;1719864;83;21129;-43
2021/05/01 08:45:13;;;;;;;4.53;2.25;;;;;;;21.46;44.29;100680.69;1719850;83;20967;-43
2021/05/01 08:47:45;;;;;;;3.95;2.77;;;;;;;21.28;45.94;100677.39;1719840;83;21011;-41
2021/05/01 08:50:31;;;;;;;16.60;3.72;;;;;;;21.50;47.67;100670.83;1719753;82;21284;-41
2021/05/01 08:53:01;;;;;;;33.75;4.40;;;;;;;21.65;48.83;100674.33;1719883;83;20951;-41
2021/05/01 08:55:34;;;;;;;7.95;2.90;;;;;;;22.03;49.21;100668.44;1719765;83;21086;-41
2021/05/01 08:58:02;;;;;;;5.53;2.85;;;;;;;22.43;47.80;100672.09;1719797;82;21053;-42
2021/05/01 09:00:31;;;;;;;2.22;1.60;;;;;;;22.64;46.66;100682.59;1719908;83;21453;-42
2021/05/01 09:03:04;;;;;;;1.90;1.57;;;;;;;22.59;43.35;100679.39;1719677;82;21269;-43
2021/05/01 09:05:32;;;;;;;1.75;1.65;;;;;;;22.50;42.70;100683.95;1719694;83;21058;-43
2021/05/01 09:08:01;;;;;;;7.62;2.00;;;;;;;22.42;42.59;100677.00;1719372;83;20982;-42
2021/05/01 09:10:51;;;;;;;1.77;1.67;;;;;;;22.61;42.61;100680.63;1693444;83;20955;-43
2021/05/01 09:13:24;;;;;;;1.80;1.70;;;;;;;22.58;42.39;100682.97;1719860;83;21006;-42
2021/05/01 09:16:05;;;;;;;1.52;1.42;;;;;;;22.52;41.79;100690.84;1719955;83;21048;-43
2021/05/01 09:18:56;;;;;;;8.85;1.95;;;;;;;22.10;40.68;100684.70;1719710;83;20919;-42
2021/05/01 09:21:27;;;;;;;2.22;1.45;;;;;;;21.61;42.21;100693.38;1719518;83;20943;-43
2021/05/01 09:23:54;;;;;;;4.53;1.70;;;;;;;21.82;42.35;100688.59;1719554;82;21010;-43
2021/05/01 09:26:41;;;;;;;1.70;1.60;;;;;;;22.24;41.18;100687.78;1719707;83;21090;-43
2021/05/01 09:29:10;;;;;;;1.55;1.45;;;;;;;22.31;40.85;100689.55;1719396;83;21254;-43
2021/05/01 09:31:48;;;;;;;1.72;1.62;;;;;;;22.28;40.56;100691.08;1719658;83;20963;-43
2021/05/01 09:34:15;;;;;;;1.98;1.70;;;;;;;22.43;40.27;100687.92;1719673;82;20927;-43
2021/05/01 09:36:43;;;;;;;7.85;2.58;;;;;;;22.25;41.60;100685.52;1719694;83;21039;-41
2021/05/01 09:39:13;;;;;;;6.53;3.58;;;;;;;22.05;41.22;100684.99;1719830;82;21066;-41
2021/05/01 09:41:46;;;;;;;2.45;1.65;;;;;;;21.90;41.86;100694.71;1719745;83;21374;-42
2021/05/01 09:44:17;;;;;;;3.50;2.80;;;;;;;21.84;41.71;100695.56;1719626;83;21472;-42
2021/05/01 09:46:53;;;;;;;4.67;3.22;;;;;;;21.90;41.81;100696.52;1719788;83;21656;-43
2021/05/01 09:49:31;;;;;;;3.30;2.02;;;;;;;22.12;40.92;100696.48;1719723;83;21027;-44
2021/05/01 09:52:05;;;;;;;2.65;2.22;;;;;;;22.29;40.89;100694.91;1719802;82;21030;-43
2021/05/01 10:36:49;;;;;;;16.42;2.80;;;;;;;23.25;40.47;100707.65;1775202;79;25508;-42
2021/05/01 10:39:16;;;;;;;24.85;3.22;;;;;;;23.47;38.48;100708.33;1737655;81;21074;-42
2021/05/01 10:41:56;;;;;;;26.23;4.30;;;;;;;23.51;37.97;100704.52;1737852;81;21395;-43
2021/05/01 10:44:24;;;;;;;21.52;3.55;;;;;;;23.36;38.30;100710.38;1732981;81;21625;-41
2021/05/01 10:47:13;;;;;;;38.75;4.40;;;;;;;23.23;38.74;100712.98;1727723;81;21029;-42
2021/05/01 10:49:44;;;;;;;18.50;3.10;;;;;;;23.17;37.08;100702.85;1738122;81;21074;-43
2021/05/01 10:52:19;;;;;;;39.18;4.25;;;;;;;23.05;37.37;100703.20;1733693;81;21258;-43
2021/05/01 10:55:03;;;;;;;33.48;3.00;;;;;;;23.15;38.84;100700.79;1729729;81;21199;-43
2021/05/01 10:57:35;;;;;;;13.32;3.42;;;;;;;23.48;38.63;100713.98;1730709;82;21058;-44
2021/05/01 11:00:09;;;;;;;20.75;3.12;;;;;;;23.66;35.50;100699.95;1705638;83;21105;-42
2021/05/01 11:02:40;;;;;;;112.55;7.03;;;;;;;23.67;35.64;100695.53;1668357;85;21204;-43
2021/05/01 11:05:12;;;;;;;22.75;3.83;;;;;;;23.53;35.27;100705.25;1735310;82;21555;-43
2021/05/01 11:07:52;;;;;;;45.90;3.50;;;;;;;23.31;35.92;100701.08;1732595;81;21200;-43
2021/05/01 11:10:21;;;;;;;11.28;2.40;;;;;;;23.35;35.70;100698.13;1729578;81;21057;-44
2021/05/01 11:12:51;;;;;;;3.92;2.05;;;;;;;23.67;36.42;100690.25;1721535;82;21018;-44
2021/05/01 11:15:22;;;;;;;12.80;2.42;;;;;;;24.09;33.86;100688.16;1726395;81;21530;-43
2021/05/01 11:18:06;;;;;;;6.83;2.30;;;;;;;24.21;34.30;100685.59;1734701;81;21072;-44
2021/05/01 11:20:35;;;;;;;58.10;5.05;;;;;;;24.28;32.80;100693.94;1740231;81;21194;-44
2021/05/01 11:23:06;;;;;;;35.25;4.15;;;;;;;23.94;34.07;100699.33;1736834;81;21072;-43
2021/05/01 11:25:35;;;;;;;47.03;3.95;;;;;;;23.66;34.17;100692.03;1741322;81;20963;-43
2021/05/01 11:28:04;;;;;;;22.62;3.58;;;;;;;23.53;33.62;100696.00;1730688;81;21085;-43
2021/05/01 11:30:32;;;;;;;10.80;2.55;;;;;;;23.47;34.65;100692.48;1719489;83;21125;-43
2021/05/01 11:33:03;;;;;;;20.35;4.10;;;;;;;23.36;34.52;100705.10;1719580;83;21210;-44
2021/05/01 11:35:32;;;;;;;38.33;3.25;;;;;;;23.24;33.63;100684.31;1702787;83;21002;-43
2021/05/01 11:38:04;;;;;;;51.55;3.50;;;;;;;23.20;34.17;100692.54;1685152;84;21560;-44
2021/05/01 11:40:34;;;;;;;36.65;4.17;;;;;;;23.19;34.54;100687.75;1712145;83;21058;-44
2021/05/01 11:43:02;;;;;;;20.80;2.92;;;;;;;23.10;34.28;100690.53;1694654;83;21260;-45
2021/05/01 11:46:09;;;;;;;78.15;5.83;;;;;;;23.09;34.47;100696.77;1718229;83;21309;-41
2021/05/01 11:48:36;;;;;;;52.17;4.83;;;;;;;23.09;33.92;100690.63;1673245;84;21120;-43
2021/05/01 11:51:05;;;;;;;13.35;2.60;;;;;;;23.17;32.99;100695.39;1720171;83;21157;-44
2021/05/01 11:53:47;;;;;;;27.62;3.30;;;;;;;22.98;34.22;100701.08;1679776;84;21043;-43
2021/05/01 11:56:57;;;;;;;7.95;2.52;;;;;;;23.01;34.36;100696.91;1720973;83;21058;-43
2021/05/01 11:59:26;;;;;;;15.40;2.95;;;;;;;23.10;35.11;100700.23;1672755;84;21399;-43
2021/05/01 12:02:00;;;;;;;7.22;2.10;;;;;;;23.22;32.87;100704.70;1671910;84;21086;-43
2021/05/01 12:05:10;;;;;;;53.25;3.30;;;;;;;23.11;34.36;100700.60;1669812;84;21208;-44
2021/05/01 12:08:02;;;;;;;9.85;3.00;;;;;;;23.18;32.49;100691.80;1684566;83;21097;-42
2021/05/01 12:10:43;;;;;;;22.22;3.02;;;;;;;23.30;32.10;100695.43;1708101;83;21208;-42
2021/05/01 12:13:19;;;;;;;1.75;1.65;;;;;;;23.41;32.57;100692.91;1708920;83;21384;-41
2021/05/01 12:15:52;;;;;;;2.00;1.90;;;;;;;23.52;30.99;100683.75;1707719;83;21038;-43
2021/05/01 12:18:19;;;;;;;4.33;1.42;;;;;;;23.38;30.77;100690.48;1723742;83;20966;-42